sensor_id;sensor_type;location;lat;lon;timestamp;P1;durP1;ratioP1;P2;durP2;ratioP2
23080;SDS011;72373;50.562;8.498;2024-01-15T00:00:39;21.25;;;8.90;;
23080;SDS011;72373;50.562;8.498;2024-01-15T00:03:05;19.55;;;8.23;;
23080;SDS011;72373;50.562;8.498;2024-01-15T00:05:30;22.20;;;8.85;;
23080;SDS011;72373;50.562;8.498;2024-01-15T00:07:56;16.33;;;7.22;;
23080;SDS011;72373;50.562;8.498;2024-01-15T00:10:21;20.75;;;8.43;;
23080;SDS011;72373;50.562;8.498;2024-01-15T00:12:48;19.38;;;8.13;;
23080;SDS011;72373;50.562;8.498;2024-01-15T00:15:13;20.45;;;7.88;;
23080;SDS011;72373;50.562;8.498;2024-01-15T00:17:39;19.98;;;8.38;;
23080;SDS011;72373;50.562;8.498;2024-01-15T00:20:04;17.35;;;7.63;;
23080;SDS011;72373;50.562;8.498;2024-01-15T00:22:31;20.00;;;7.78;;
23080;SDS011;72373;50.562;8.498;2024-01-15T00:24:57;21.10;;;8.98;;
23080;SDS011;72373;50.562;8.498;2024-01-15T00:27:22;16.77;;;7.20;;
23080;SDS011;72373;50.562;8.498;2024-01-15T00:29:48;18.95;;;7.20;;
23080;SDS011;72373;50.562;8.498;2024-01-15T00:32:15;17.25;;;7.82;;
23080;SDS011;72373;50.562;8.498;2024-01-15T00:34:41;16.45;;;8.07;;
23080;SDS011;72373;50.562;8.498;2024-01-15T00:37:06;17.00;;;7.82;;
23080;SDS011;72373;50.562;8.498;2024-01-15T00:39:32;21.77;;;7.95;;
23080;SDS011;72373;50.562;8.498;2024-01-15T00:41:58;21.67;;;7.75;;
23080;SDS011;72373;50.562;8.498;2024-01-15T00:44:23;20.17;;;7.70;;
23080;SDS011;72373;50.562;8.498;2024-01-15T00:46:49;16.58;;;7.70;;
23080;SDS011;72373;50.562;8.498;2024-01-15T00:49:14;16.38;;;6.78;;
23080;SDS011;72373;50.562;8.498;2024-01-15T00:51:40;15.88;;;7.03;;
23080;SDS011;72373;50.562;8.498;2024-01-15T00:54:06;16.15;;;7.65;;
23080;SDS011;72373;50.562;8.498;2024-01-15T00:56:32;16.33;;;6.97;;
23080;SDS011;72373;50.562;8.498;2024-01-15T00:58:57;17.83;;;7.57;;
23080;SDS011;72373;50.562;8.498;2024-01-15T01:01:23;21.70;;;7.25;;
23080;SDS011;72373;50.562;8.498;2024-01-15T01:03:48;14.75;;;6.45;;
23080;SDS011;72373;50.562;8.498;2024-01-15T01:06:14;17.27;;;6.97;;
23080;SDS011;72373;50.562;8.498;2024-01-15T01:08:39;16.70;;;7.60;;
23080;SDS011;72373;50.562;8.498;2024-01-15T01:11:05;21.20;;;7.43;;
23080;SDS011;72373;50.562;8.498;2024-01-15T01:13:31;18.13;;;7.50;;
23080;SDS011;72373;50.562;8.498;2024-01-15T01:15:57;16.80;;;6.68;;
23080;SDS011;72373;50.562;8.498;2024-01-15T01:18:23;15.85;;;7.38;;
23080;SDS011;72373;50.562;8.498;2024-01-15T01:20:48;22.83;;;8.10;;
23080;SDS011;72373;50.562;8.498;2024-01-15T01:23:14;16.08;;;7.03;;
23080;SDS011;72373;50.562;8.498;2024-01-15T01:25:40;18.65;;;7.75;;
23080;SDS011;72373;50.562;8.498;2024-01-15T01:28:05;15.80;;;7.70;;
23080;SDS011;72373;50.562;8.498;2024-01-15T01:30:31;19.23;;;8.45;;
23080;SDS011;72373;50.562;8.498;2024-01-15T01:32:57;18.17;;;7.82;;
23080;SDS011;72373;50.562;8.498;2024-01-15T01:35:22;16.73;;;8.18;;
23080;SDS011;72373;50.562;8.498;2024-01-15T01:37:48;19.88;;;8.05;;
23080;SDS011;72373;50.562;8.498;2024-01-15T01:40:13;18.90;;;8.02;;
23080;SDS011;72373;50.562;8.498;2024-01-15T01:42:39;22.33;;;8.82;;
23080;SDS011;72373;50.562;8.498;2024-01-15T01:45:04;22.65;;;7.90;;
23080;SDS011;72373;50.562;8.498;2024-01-15T01:47:30;19.88;;;8.48;;
23080;SDS011;72373;50.562;8.498;2024-01-15T01:49:57;20.15;;;8.38;;
23080;SDS011;72373;50.562;8.498;2024-01-15T01:52:22;22.27;;;8.50;;
23080;SDS011;72373;50.562;8.498;2024-01-15T01:54:49;20.88;;;8.63;;
23080;SDS011;72373;50.562;8.498;2024-01-15T01:57:15;23.85;;;8.88;;
23080;SDS011;72373;50.562;8.498;2024-01-15T01:59:42;21.63;;;8.15;;
23080;SDS011;72373;50.562;8.498;2024-01-15T02:02:09;25.30;;;9.13;;
23080;SDS011;72373;50.562;8.498;2024-01-15T02:04:35;23.48;;;8.35;;
23080;SDS011;72373;50.562;8.498;2024-01-15T02:07:01;22.95;;;9.13;;
23080;SDS011;72373;50.562;8.498;2024-01-15T02:09:29;22.98;;;9.48;;
23080;SDS011;72373;50.562;8.498;2024-01-15T02:11:54;25.88;;;9.55;;
23080;SDS011;72373;50.562;8.498;2024-01-15T02:14:20;21.20;;;9.10;;
23080;SDS011;72373;50.562;8.498;2024-01-15T02:16:46;24.92;;;9.07;;
23080;SDS011;72373;50.562;8.498;2024-01-15T02:19:15;26.52;;;9.95;;
23080;SDS011;72373;50.562;8.498;2024-01-15T02:21:42;24.83;;;9.38;;
23080;SDS011;72373;50.562;8.498;2024-01-15T02:24:07;22.50;;;9.40;;
23080;SDS011;72373;50.562;8.498;2024-01-15T02:26:33;19.25;;;8.65;;
23080;SDS011;72373;50.562;8.498;2024-01-15T02:29:01;21.70;;;8.40;;
23080;SDS011;72373;50.562;8.498;2024-01-15T02:31:27;25.55;;;9.35;;
23080;SDS011;72373;50.562;8.498;2024-01-15T02:33:52;21.38;;;9.30;;
23080;SDS011;72373;50.562;8.498;2024-01-15T02:36:18;21.65;;;9.02;;
23080;SDS011;72373;50.562;8.498;2024-01-15T02:38:43;27.08;;;9.57;;
23080;SDS011;72373;50.562;8.498;2024-01-15T02:41:09;19.02;;;9.20;;
23080;SDS011;72373;50.562;8.498;2024-01-15T02:43:34;25.65;;;9.57;;
23080;SDS011;72373;50.562;8.498;2024-01-15T02:46:00;22.83;;;9.73;;
23080;SDS011;72373;50.562;8.498;2024-01-15T02:48:25;27.48;;;10.23;;
23080;SDS011;72373;50.562;8.498;2024-01-15T02:50:51;23.10;;;9.60;;
23080;SDS011;72373;50.562;8.498;2024-01-15T02:53:16;20.90;;;8.75;;
23080;SDS011;72373;50.562;8.498;2024-01-15T02:55:42;28.30;;;10.10;;
23080;SDS011;72373;50.562;8.498;2024-01-15T02:58:07;27.77;;;9.25;;
23080;SDS011;72373;50.562;8.498;2024-01-15T03:00:33;26.88;;;8.70;;
23080;SDS011;72373;50.562;8.498;2024-01-15T03:02:58;29.73;;;9.80;;
23080;SDS011;72373;50.562;8.498;2024-01-15T03:05:24;18.73;;;8.70;;
23080;SDS011;72373;50.562;8.498;2024-01-15T03:07:49;23.15;;;8.95;;
23080;SDS011;72373;50.562;8.498;2024-01-15T03:10:15;24.50;;;8.02;;
23080;SDS011;72373;50.562;8.498;2024-01-15T03:12:40;25.23;;;9.13;;
23080;SDS011;72373;50.562;8.498;2024-01-15T03:15:06;24.15;;;8.98;;
23080;SDS011;72373;50.562;8.498;2024-01-15T03:17:31;20.98;;;8.38;;
23080;SDS011;72373;50.562;8.498;2024-01-15T03:19:57;24.58;;;9.63;;
23080;SDS011;72373;50.562;8.498;2024-01-15T03:22:23;31.27;;;9.75;;
23080;SDS011;72373;50.562;8.498;2024-01-15T03:24:48;27.05;;;9.73;;
23080;SDS011;72373;50.562;8.498;2024-01-15T03:27:14;24.98;;;8.95;;
23080;SDS011;72373;50.562;8.498;2024-01-15T03:29:39;25.70;;;9.77;;
23080;SDS011;72373;50.562;8.498;2024-01-15T03:32:05;23.25;;;9.93;;
23080;SDS011;72373;50.562;8.498;2024-01-15T03:34:31;26.85;;;10.32;;
23080;SDS011;72373;50.562;8.498;2024-01-15T03:36:57;19.95;;;9.23;;
23080;SDS011;72373;50.562;8.498;2024-01-15T03:39:23;21.85;;;8.90;;
23080;SDS011;72373;50.562;8.498;2024-01-15T03:41:49;23.27;;;8.85;;
23080;SDS011;72373;50.562;8.498;2024-01-15T03:44:15;21.60;;;8.02;;
23080;SDS011;72373;50.562;8.498;2024-01-15T03:46:40;20.15;;;7.97;;
23080;SDS011;72373;50.562;8.498;2024-01-15T03:49:06;26.52;;;8.95;;
23080;SDS011;72373;50.562;8.498;2024-01-15T03:51:31;21.65;;;8.40;;
23080;SDS011;72373;50.562;8.498;2024-01-15T03:53:57;28.25;;;9.70;;
23080;SDS011;72373;50.562;8.498;2024-01-15T03:56:22;21.17;;;9.20;;
23080;SDS011;72373;50.562;8.498;2024-01-15T03:58:48;21.35;;;8.80;;
23080;SDS011;72373;50.562;8.498;2024-01-15T04:01:13;23.17;;;8.73;;
23080;SDS011;72373;50.562;8.498;2024-01-15T04:03:39;22.17;;;8.60;;
23080;SDS011;72373;50.562;8.498;2024-01-15T04:06:04;24.42;;;9.55;;
23080;SDS011;72373;50.562;8.498;2024-01-15T04:08:30;24.95;;;8.75;;
23080;SDS011;72373;50.562;8.498;2024-01-15T04:10:55;24.75;;;9.00;;
23080;SDS011;72373;50.562;8.498;2024-01-15T04:13:21;22.88;;;8.95;;
23080;SDS011;72373;50.562;8.498;2024-01-15T04:15:47;19.70;;;8.85;;
23080;SDS011;72373;50.562;8.498;2024-01-15T04:18:13;22.83;;;8.55;;
23080;SDS011;72373;50.562;8.498;2024-01-15T04:20:38;29.80;;;9.35;;
23080;SDS011;72373;50.562;8.498;2024-01-15T04:23:04;30.45;;;10.90;;
23080;SDS011;72373;50.562;8.498;2024-01-15T04:25:30;24.30;;;9.60;;
23080;SDS011;72373;50.562;8.498;2024-01-15T04:27:56;27.88;;;10.25;;
23080;SDS011;72373;50.562;8.498;2024-01-15T04:30:21;23.33;;;9.45;;
23080;SDS011;72373;50.562;8.498;2024-01-15T04:32:47;26.52;;;10.35;;
23080;SDS011;72373;50.562;8.498;2024-01-15T04:35:12;26.05;;;9.75;;
23080;SDS011;72373;50.562;8.498;2024-01-15T04:37:39;21.55;;;9.18;;
23080;SDS011;72373;50.562;8.498;2024-01-15T04:40:05;24.65;;;9.77;;
23080;SDS011;72373;50.562;8.498;2024-01-15T04:42:32;23.80;;;9.50;;
23080;SDS011;72373;50.562;8.498;2024-01-15T04:44:57;21.55;;;8.88;;
23080;SDS011;72373;50.562;8.498;2024-01-15T04:47:23;24.48;;;8.90;;
23080;SDS011;72373;50.562;8.498;2024-01-15T04:49:48;24.88;;;9.52;;
23080;SDS011;72373;50.562;8.498;2024-01-15T04:52:14;25.92;;;9.57;;
23080;SDS011;72373;50.562;8.498;2024-01-15T04:54:40;24.83;;;8.73;;
23080;SDS011;72373;50.562;8.498;2024-01-15T04:57:05;24.13;;;8.50;;
23080;SDS011;72373;50.562;8.498;2024-01-15T04:59:31;26.45;;;9.20;;
23080;SDS011;72373;50.562;8.498;2024-01-15T05:01:57;28.23;;;9.32;;
23080;SDS011;72373;50.562;8.498;2024-01-15T05:04:22;24.98;;;10.60;;
23080;SDS011;72373;50.562;8.498;2024-01-15T05:06:49;20.80;;;9.55;;
23080;SDS011;72373;50.562;8.498;2024-01-15T05:09:15;27.25;;;10.02;;
23080;SDS011;72373;50.562;8.498;2024-01-15T05:11:41;26.10;;;10.23;;
23080;SDS011;72373;50.562;8.498;2024-01-15T05:14:06;22.20;;;9.18;;
23080;SDS011;72373;50.562;8.498;2024-01-15T05:16:32;28.83;;;10.20;;
23080;SDS011;72373;50.562;8.498;2024-01-15T05:18:57;29.67;;;10.05;;
23080;SDS011;72373;50.562;8.498;2024-01-15T05:21:23;27.77;;;10.15;;
23080;SDS011;72373;50.562;8.498;2024-01-15T05:23:48;26.48;;;10.20;;
23080;SDS011;72373;50.562;8.498;2024-01-15T05:26:14;23.55;;;10.07;;
23080;SDS011;72373;50.562;8.498;2024-01-15T05:28:42;29.15;;;9.38;;
23080;SDS011;72373;50.562;8.498;2024-01-15T05:31:08;26.70;;;9.68;;
23080;SDS011;72373;50.562;8.498;2024-01-15T05:33:34;30.58;;;10.25;;
23080;SDS011;72373;50.562;8.498;2024-01-15T05:35:59;27.17;;;9.55;;
23080;SDS011;72373;50.562;8.498;2024-01-15T05:38:25;25.25;;;9.70;;
23080;SDS011;72373;50.562;8.498;2024-01-15T05:40:51;25.23;;;9.75;;
23080;SDS011;72373;50.562;8.498;2024-01-15T05:43:16;27.52;;;9.45;;
23080;SDS011;72373;50.562;8.498;2024-01-15T05:45:44;24.63;;;9.63;;
23080;SDS011;72373;50.562;8.498;2024-01-15T05:48:10;26.92;;;10.45;;
23080;SDS011;72373;50.562;8.498;2024-01-15T05:50:37;25.27;;;9.90;;
23080;SDS011;72373;50.562;8.498;2024-01-15T05:53:03;24.40;;;10.18;;
23080;SDS011;72373;50.562;8.498;2024-01-15T05:55:29;26.67;;;9.65;;
23080;SDS011;72373;50.562;8.498;2024-01-15T05:57:54;27.10;;;10.23;;
23080;SDS011;72373;50.562;8.498;2024-01-15T06:00:20;25.83;;;9.38;;
23080;SDS011;72373;50.562;8.498;2024-01-15T06:02:45;26.55;;;10.63;;
23080;SDS011;72373;50.562;8.498;2024-01-15T06:05:11;24.65;;;9.52;;
23080;SDS011;72373;50.562;8.498;2024-01-15T06:07:36;24.58;;;9.25;;
23080;SDS011;72373;50.562;8.498;2024-01-15T06:10:02;29.60;;;9.95;;
23080;SDS011;72373;50.562;8.498;2024-01-15T06:12:29;26.85;;;11.43;;
23080;SDS011;72373;50.562;8.498;2024-01-15T06:14:56;25.20;;;9.88;;
23080;SDS011;72373;50.562;8.498;2024-01-15T06:17:21;31.92;;;10.15;;
23080;SDS011;72373;50.562;8.498;2024-01-15T06:19:47;24.42;;;9.98;;
23080;SDS011;72373;50.562;8.498;2024-01-15T06:22:12;23.70;;;10.77;;
23080;SDS011;72373;50.562;8.498;2024-01-15T06:24:38;29.10;;;10.70;;
23080;SDS011;72373;50.562;8.498;2024-01-15T06:27:03;25.65;;;9.60;;
23080;SDS011;72373;50.562;8.498;2024-01-15T06:29:30;34.95;;;11.27;;
23080;SDS011;72373;50.562;8.498;2024-01-15T06:31:55;25.10;;;9.40;;
23080;SDS011;72373;50.562;8.498;2024-01-15T06:34:21;27.83;;;11.23;;
23080;SDS011;72373;50.562;8.498;2024-01-15T06:36:46;26.55;;;10.93;;
23080;SDS011;72373;50.562;8.498;2024-01-15T06:39:12;27.58;;;9.95;;
23080;SDS011;72373;50.562;8.498;2024-01-15T06:41:37;28.40;;;10.82;;
23080;SDS011;72373;50.562;8.498;2024-01-15T06:44:12;24.00;;;9.55;;
23080;SDS011;72373;50.562;8.498;2024-01-15T06:46:44;25.02;;;9.18;;
23080;SDS011;72373;50.562;8.498;2024-01-15T06:49:10;27.13;;;10.50;;
23080;SDS011;72373;50.562;8.498;2024-01-15T06:51:36;26.45;;;10.60;;
23080;SDS011;72373;50.562;8.498;2024-01-15T06:54:01;26.77;;;10.18;;
23080;SDS011;72373;50.562;8.498;2024-01-15T06:56:27;25.70;;;10.15;;
23080;SDS011;72373;50.562;8.498;2024-01-15T06:58:52;27.88;;;10.27;;
23080;SDS011;72373;50.562;8.498;2024-01-15T07:01:18;27.10;;;10.00;;
23080;SDS011;72373;50.562;8.498;2024-01-15T07:03:43;28.48;;;10.07;;
23080;SDS011;72373;50.562;8.498;2024-01-15T07:06:09;27.65;;;10.35;;
23080;SDS011;72373;50.562;8.498;2024-01-15T07:08:35;29.75;;;10.40;;
23080;SDS011;72373;50.562;8.498;2024-01-15T07:11:03;28.23;;;10.07;;
23080;SDS011;72373;50.562;8.498;2024-01-15T07:13:29;26.42;;;10.23;;
23080;SDS011;72373;50.562;8.498;2024-01-15T07:15:54;25.65;;;10.13;;
23080;SDS011;72373;50.562;8.498;2024-01-15T07:18:20;25.40;;;10.15;;
23080;SDS011;72373;50.562;8.498;2024-01-15T07:20:45;32.00;;;10.43;;
23080;SDS011;72373;50.562;8.498;2024-01-15T07:23:11;24.38;;;10.13;;
23080;SDS011;72373;50.562;8.498;2024-01-15T07:25:37;26.95;;;10.90;;
23080;SDS011;72373;50.562;8.498;2024-01-15T07:28:02;23.83;;;10.35;;
23080;SDS011;72373;50.562;8.498;2024-01-15T07:30:28;30.38;;;10.70;;
23080;SDS011;72373;50.562;8.498;2024-01-15T07:32:54;27.40;;;10.80;;
23080;SDS011;72373;50.562;8.498;2024-01-15T07:35:20;29.67;;;10.32;;
23080;SDS011;72373;50.562;8.498;2024-01-15T07:37:46;25.10;;;10.70;;
23080;SDS011;72373;50.562;8.498;2024-01-15T07:40:11;32.63;;;12.07;;
23080;SDS011;72373;50.562;8.498;2024-01-15T07:42:37;28.98;;;11.50;;
23080;SDS011;72373;50.562;8.498;2024-01-15T07:45:03;24.48;;;10.05;;
23080;SDS011;72373;50.562;8.498;2024-01-15T07:47:29;27.90;;;11.32;;
23080;SDS011;72373;50.562;8.498;2024-01-15T07:49:55;32.08;;;12.48;;
23080;SDS011;72373;50.562;8.498;2024-01-15T07:52:21;27.23;;;10.73;;
23080;SDS011;72373;50.562;8.498;2024-01-15T07:54:46;32.47;;;11.18;;
23080;SDS011;72373;50.562;8.498;2024-01-15T07:57:12;28.95;;;12.35;;
23080;SDS011;72373;50.562;8.498;2024-01-15T07:59:38;28.67;;;10.50;;
23080;SDS011;72373;50.562;8.498;2024-01-15T08:02:05;28.33;;;10.98;;
23080;SDS011;72373;50.562;8.498;2024-01-15T08:04:30;27.45;;;11.32;;
23080;SDS011;72373;50.562;8.498;2024-01-15T08:06:56;28.70;;;10.82;;
23080;SDS011;72373;50.562;8.498;2024-01-15T08:09:22;29.55;;;11.02;;
23080;SDS011;72373;50.562;8.498;2024-01-15T08:11:48;30.48;;;10.82;;
23080;SDS011;72373;50.562;8.498;2024-01-15T08:14:14;26.92;;;10.48;;
23080;SDS011;72373;50.562;8.498;2024-01-15T08:16:40;25.17;;;10.63;;
23080;SDS011;72373;50.562;8.498;2024-01-15T08:19:06;27.38;;;10.73;;
23080;SDS011;72373;50.562;8.498;2024-01-15T08:21:31;27.52;;;10.60;;
23080;SDS011;72373;50.562;8.498;2024-01-15T08:24:00;27.23;;;10.07;;
23080;SDS011;72373;50.562;8.498;2024-01-15T08:26:29;26.67;;;10.80;;
23080;SDS011;72373;50.562;8.498;2024-01-15T08:28:55;26.98;;;10.77;;
23080;SDS011;72373;50.562;8.498;2024-01-15T08:31:21;28.33;;;10.38;;
23080;SDS011;72373;50.562;8.498;2024-01-15T08:33:47;27.02;;;11.20;;
23080;SDS011;72373;50.562;8.498;2024-01-15T08:36:12;24.88;;;10.32;;
23080;SDS011;72373;50.562;8.498;2024-01-15T08:38:38;29.30;;;10.93;;
23080;SDS011;72373;50.562;8.498;2024-01-15T08:41:04;32.33;;;11.13;;
23080;SDS011;72373;50.562;8.498;2024-01-15T08:43:30;27.27;;;11.18;;
23080;SDS011;72373;50.562;8.498;2024-01-15T08:45:58;34.13;;;14.63;;
23080;SDS011;72373;50.562;8.498;2024-01-15T08:48:24;27.70;;;11.35;;
23080;SDS011;72373;50.562;8.498;2024-01-15T08:50:52;24.38;;;11.07;;
23080;SDS011;72373;50.562;8.498;2024-01-15T08:53:18;27.98;;;10.27;;
23080;SDS011;72373;50.562;8.498;2024-01-15T08:55:43;26.80;;;11.15;;
23080;SDS011;72373;50.562;8.498;2024-01-15T08:58:09;24.48;;;10.70;;
23080;SDS011;72373;50.562;8.498;2024-01-15T09:00:35;21.63;;;8.82;;
23080;SDS011;72373;50.562;8.498;2024-01-15T09:03:01;28.77;;;10.68;;
23080;SDS011;72373;50.562;8.498;2024-01-15T09:05:27;25.00;;;10.70;;
23080;SDS011;72373;50.562;8.498;2024-01-15T09:07:54;24.35;;;10.10;;
23080;SDS011;72373;50.562;8.498;2024-01-15T09:10:19;24.83;;;10.88;;
23080;SDS011;72373;50.562;8.498;2024-01-15T09:12:45;24.83;;;10.55;;
23080;SDS011;72373;50.562;8.498;2024-01-15T09:15:11;25.77;;;9.80;;
23080;SDS011;72373;50.562;8.498;2024-01-15T09:17:37;25.63;;;9.48;;
23080;SDS011;72373;50.562;8.498;2024-01-15T09:20:02;22.33;;;9.82;;
23080;SDS011;72373;50.562;8.498;2024-01-15T09:22:30;26.20;;;10.75;;
23080;SDS011;72373;50.562;8.498;2024-01-15T09:24:56;27.10;;;11.23;;
23080;SDS011;72373;50.562;8.498;2024-01-15T09:27:22;25.67;;;10.50;;
23080;SDS011;72373;50.562;8.498;2024-01-15T09:29:47;20.40;;;9.45;;
23080;SDS011;72373;50.562;8.498;2024-01-15T09:32:13;26.13;;;9.43;;
23080;SDS011;72373;50.562;8.498;2024-01-15T09:34:38;24.33;;;10.23;;
23080;SDS011;72373;50.562;8.498;2024-01-15T09:37:04;21.05;;;9.85;;
23080;SDS011;72373;50.562;8.498;2024-01-15T09:39:30;21.67;;;9.73;;
23080;SDS011;72373;50.562;8.498;2024-01-15T09:41:56;24.27;;;10.95;;
23080;SDS011;72373;50.562;8.498;2024-01-15T09:44:22;26.55;;;10.25;;
23080;SDS011;72373;50.562;8.498;2024-01-15T09:46:48;27.25;;;9.85;;
23080;SDS011;72373;50.562;8.498;2024-01-15T09:49:17;25.83;;;11.18;;
23080;SDS011;72373;50.562;8.498;2024-01-15T09:51:43;24.75;;;10.32;;
23080;SDS011;72373;50.562;8.498;2024-01-15T09:54:09;25.58;;;10.55;;
23080;SDS011;72373;50.562;8.498;2024-01-15T09:56:35;29.77;;;11.57;;
23080;SDS011;72373;50.562;8.498;2024-01-15T09:59:01;27.10;;;10.63;;
23080;SDS011;72373;50.562;8.498;2024-01-15T10:01:29;28.55;;;11.82;;
23080;SDS011;72373;50.562;8.498;2024-01-15T10:03:57;31.95;;;11.77;;
23080;SDS011;72373;50.562;8.498;2024-01-15T10:06:23;28.88;;;12.20;;
23080;SDS011;72373;50.562;8.498;2024-01-15T10:08:55;28.85;;;11.68;;
23080;SDS011;72373;50.562;8.498;2024-01-15T10:11:23;26.20;;;11.65;;
23080;SDS011;72373;50.562;8.498;2024-01-15T10:13:48;31.75;;;11.73;;
23080;SDS011;72373;50.562;8.498;2024-01-15T10:16:18;28.98;;;11.90;;
23080;SDS011;72373;50.562;8.498;2024-01-15T10:18:44;26.42;;;11.48;;
23080;SDS011;72373;50.562;8.498;2024-01-15T10:21:10;24.27;;;11.18;;
23080;SDS011;72373;50.562;8.498;2024-01-15T10:23:35;25.98;;;10.23;;
23080;SDS011;72373;50.562;8.498;2024-01-15T10:26:01;30.55;;;11.70;;
23080;SDS011;72373;50.562;8.498;2024-01-15T10:28:27;26.00;;;10.77;;
23080;SDS011;72373;50.562;8.498;2024-01-15T10:30:55;25.38;;;10.27;;
23080;SDS011;72373;50.562;8.498;2024-01-15T10:33:23;26.05;;;10.52;;
23080;SDS011;72373;50.562;8.498;2024-01-15T10:35:54;25.17;;;10.23;;
23080;SDS011;72373;50.562;8.498;2024-01-15T10:38:21;25.38;;;10.07;;
23080;SDS011;72373;50.562;8.498;2024-01-15T10:40:48;29.83;;;10.20;;
23080;SDS011;72373;50.562;8.498;2024-01-15T10:43:16;25.20;;;10.13;;
23080;SDS011;72373;50.562;8.498;2024-01-15T10:45:43;21.17;;;9.93;;
23080;SDS011;72373;50.562;8.498;2024-01-15T10:48:13;22.55;;;9.65;;
23080;SDS011;72373;50.562;8.498;2024-01-15T10:50:41;19.38;;;8.75;;
23080;SDS011;72373;50.562;8.498;2024-01-15T10:53:06;18.98;;;9.02;;
23080;SDS011;72373;50.562;8.498;2024-01-15T10:55:35;21.67;;;9.38;;
23080;SDS011;72373;50.562;8.498;2024-01-15T10:58:02;22.27;;;9.35;;
23080;SDS011;72373;50.562;8.498;2024-01-15T11:00:28;23.05;;;9.73;;
23080;SDS011;72373;50.562;8.498;2024-01-15T11:02:55;20.15;;;9.75;;
23080;SDS011;72373;50.562;8.498;2024-01-15T11:05:21;20.38;;;9.52;;
23080;SDS011;72373;50.562;8.498;2024-01-15T11:07:50;19.08;;;9.48;;
23080;SDS011;72373;50.562;8.498;2024-01-15T11:11:20;24.95;;;9.45;;
23080;SDS011;72373;50.562;8.498;2024-01-15T11:13:21;25.15;;;11.07;;
23080;SDS011;72373;50.562;8.498;2024-01-15T11:16:08;21.45;;;9.27;;
23080;SDS011;72373;50.562;8.498;2024-01-15T11:18:39;24.45;;;10.38;;
23080;SDS011;72373;50.562;8.498;2024-01-15T11:21:23;18.83;;;9.40;;
23080;SDS011;72373;50.562;8.498;2024-01-15T11:26:35;21.23;;;9.05;;
23080;SDS011;72373;50.562;8.498;2024-01-15T11:29:02;20.60;;;9.57;;
23080;SDS011;72373;50.562;8.498;2024-01-15T11:34:15;21.75;;;8.65;;
23080;SDS011;72373;50.562;8.498;2024-01-15T11:41:57;18.75;;;8.73;;
23080;SDS011;72373;50.562;8.498;2024-01-15T11:44:24;19.08;;;9.07;;
23080;SDS011;72373;50.562;8.498;2024-01-15T11:47:00;17.20;;;7.72;;
23080;SDS011;72373;50.562;8.498;2024-01-15T11:52:11;17.40;;;8.55;;
23080;SDS011;72373;50.562;8.498;2024-01-15T11:54:37;20.23;;;9.73;;
23080;SDS011;72373;50.562;8.498;2024-01-15T11:57:08;18.75;;;8.45;;
23080;SDS011;72373;50.562;8.498;2024-01-15T11:59:40;21.42;;;8.88;;
23080;SDS011;72373;50.562;8.498;2024-01-15T12:02:06;17.58;;;8.50;;
23080;SDS011;72373;50.562;8.498;2024-01-15T12:04:32;18.80;;;8.38;;
23080;SDS011;72373;50.562;8.498;2024-01-15T12:06:58;22.50;;;8.60;;
23080;SDS011;72373;50.562;8.498;2024-01-15T12:09:23;16.77;;;8.35;;
23080;SDS011;72373;50.562;8.498;2024-01-15T12:11:51;19.58;;;8.48;;
23080;SDS011;72373;50.562;8.498;2024-01-15T12:14:24;19.08;;;8.43;;
23080;SDS011;72373;50.562;8.498;2024-01-15T12:16:49;17.38;;;8.23;;
23080;SDS011;72373;50.562;8.498;2024-01-15T12:19:15;16.48;;;8.23;;
23080;SDS011;72373;50.562;8.498;2024-01-15T12:21:41;16.60;;;8.25;;
23080;SDS011;72373;50.562;8.498;2024-01-15T12:24:07;18.50;;;8.38;;
23080;SDS011;72373;50.562;8.498;2024-01-15T12:26:32;16.15;;;7.88;;
23080;SDS011;72373;50.562;8.498;2024-01-15T12:29:01;15.88;;;8.23;;
23080;SDS011;72373;50.562;8.498;2024-01-15T12:31:27;17.90;;;8.80;;
23080;SDS011;72373;50.562;8.498;2024-01-15T12:33:54;13.90;;;7.10;;
23080;SDS011;72373;50.562;8.498;2024-01-15T12:36:21;17.20;;;7.65;;
23080;SDS011;72373;50.562;8.498;2024-01-15T12:38:46;14.73;;;7.07;;
23080;SDS011;72373;50.562;8.498;2024-01-15T12:41:12;12.15;;;7.13;;
23080;SDS011;72373;50.562;8.498;2024-01-15T12:43:37;14.23;;;7.50;;
23080;SDS011;72373;50.562;8.498;2024-01-15T12:46:03;14.68;;;7.38;;
23080;SDS011;72373;50.562;8.498;2024-01-15T12:48:29;15.75;;;7.57;;
23080;SDS011;72373;50.562;8.498;2024-01-15T12:50:55;13.38;;;6.53;;
23080;SDS011;72373;50.562;8.498;2024-01-15T12:53:20;14.90;;;7.32;;
23080;SDS011;72373;50.562;8.498;2024-01-15T12:55:46;13.15;;;6.55;;
23080;SDS011;72373;50.562;8.498;2024-01-15T12:58:12;15.30;;;7.53;;
23080;SDS011;72373;50.562;8.498;2024-01-15T13:00:38;12.00;;;7.18;;
23080;SDS011;72373;50.562;8.498;2024-01-15T13:03:04;12.77;;;6.85;;
23080;SDS011;72373;50.562;8.498;2024-01-15T13:05:31;13.45;;;6.78;;
23080;SDS011;72373;50.562;8.498;2024-01-15T13:07:58;13.75;;;6.82;;
23080;SDS011;72373;50.562;8.498;2024-01-15T13:10:24;12.80;;;6.22;;
23080;SDS011;72373;50.562;8.498;2024-01-15T13:12:50;11.98;;;6.03;;
23080;SDS011;72373;50.562;8.498;2024-01-15T13:15:15;11.50;;;6.25;;
23080;SDS011;72373;50.562;8.498;2024-01-15T13:17:41;13.82;;;6.32;;
23080;SDS011;72373;50.562;8.498;2024-01-15T13:20:07;11.15;;;6.15;;
23080;SDS011;72373;50.562;8.498;2024-01-15T13:22:33;11.02;;;5.68;;
23080;SDS011;72373;50.562;8.498;2024-01-15T13:24:59;10.98;;;5.20;;
23080;SDS011;72373;50.562;8.498;2024-01-15T13:27:25;9.70;;;5.53;;
23080;SDS011;72373;50.562;8.498;2024-01-15T13:29:50;10.95;;;7.28;;
23080;SDS011;72373;50.562;8.498;2024-01-15T13:32:22;7.95;;;4.35;;
23080;SDS011;72373;50.562;8.498;2024-01-15T13:34:50;7.50;;;4.53;;
23080;SDS011;72373;50.562;8.498;2024-01-15T13:37:16;6.25;;;4.07;;
23080;SDS011;72373;50.562;8.498;2024-01-15T13:39:42;9.05;;;4.38;;
23080;SDS011;72373;50.562;8.498;2024-01-15T13:42:07;7.28;;;4.22;;
23080;SDS011;72373;50.562;8.498;2024-01-15T13:44:36;8.38;;;4.07;;
23080;SDS011;72373;50.562;8.498;2024-01-15T13:47:02;5.50;;;3.47;;
23080;SDS011;72373;50.562;8.498;2024-01-15T13:49:28;6.70;;;3.85;;
23080;SDS011;72373;50.562;8.498;2024-01-15T13:51:54;5.65;;;3.85;;
23080;SDS011;72373;50.562;8.498;2024-01-15T13:54:19;5.65;;;3.88;;
23080;SDS011;72373;50.562;8.498;2024-01-15T13:56:45;6.70;;;3.50;;
23080;SDS011;72373;50.562;8.498;2024-01-15T13:59:12;6.00;;;3.47;;
23080;SDS011;72373;50.562;8.498;2024-01-15T14:01:38;4.57;;;3.30;;
23080;SDS011;72373;50.562;8.498;2024-01-15T14:04:03;5.10;;;3.30;;
23080;SDS011;72373;50.562;8.498;2024-01-15T14:06:29;6.65;;;3.67;;
23080;SDS011;72373;50.562;8.498;2024-01-15T14:08:54;4.65;;;3.22;;
23080;SDS011;72373;50.562;8.498;2024-01-15T14:11:20;7.25;;;3.72;;
23080;SDS011;72373;50.562;8.498;2024-01-15T14:13:45;4.65;;;3.20;;
23080;SDS011;72373;50.562;8.498;2024-01-15T14:16:12;7.30;;;3.30;;
23080;SDS011;72373;50.562;8.498;2024-01-15T14:18:38;5.50;;;3.40;;
23080;SDS011;72373;50.562;8.498;2024-01-15T14:21:03;3.65;;;2.75;;
23080;SDS011;72373;50.562;8.498;2024-01-15T14:23:29;6.93;;;3.60;;
23080;SDS011;72373;50.562;8.498;2024-01-15T14:25:54;5.50;;;3.35;;
23080;SDS011;72373;50.562;8.498;2024-01-15T14:28:20;6.88;;;3.70;;
23080;SDS011;72373;50.562;8.498;2024-01-15T14:30:46;5.32;;;3.58;;
23080;SDS011;72373;50.562;8.498;2024-01-15T14:33:11;5.40;;;3.65;;
23080;SDS011;72373;50.562;8.498;2024-01-15T14:35:37;5.20;;;4.18;;
23080;SDS011;72373;50.562;8.498;2024-01-15T14:38:02;6.35;;;3.83;;